PWSweather.com
Personal Weather Stations
Station Observations
KCTCOLEB1
Sandy Brook, Colebrook, CT 06021

Sandy BrookColebrook, CT 06021

Lat: 42.0018, Lon: -73.0825

Elevation: 935

Station Type: Davis Vantage Pro2 + Solar + UV

Latest ConditionsUpdated 12:10:01 PM EST Monday, Jan 21, 2019
Currently Today's Max Today's Min Today's Average
Temperature -1.4°F-18.6°C 1.3°F-17.1°C -6.3°F-21.3°C -3.5°F-19.7°C
Dew Point -8.3°F-22.4°C -4.8°F-20.4°C -13.3°F-25.2°C -10.0°F-23.3°C
Winds 2.3 mph NW3.7 kmh NW 6.9 mph -11.1 kmh - - 3.5 mph 5.6 kmh
Wind Gusts 3.5 mph5.6 kmh 13.8 mph22.2 kmh - -
Humidity 72% 76% 70% 73%
Pressure 29.92 in1013.2 mb 29.93 in1013.5 mb 29.67 in1004.7 mb -
Hour Temp Dew Point Humidity Winds Wind Gusts Pressure Precip Precip Rate Daily Precip Total
12:10 PM -1.4°F-18.6°C -8.3°F-22.4°C 72% 2.3 mph NW3.7 kmh NW 3.5 mph5.6 kmh 29.92 in1013.2 mb - 0.00 in0.0 mm 0.00 in0.0 mm
12:00 PM -2.0°F-18.9°C -8.5°F-22.5°C 73% 3.5 mph NNW5.6 kmh NNW 4.6 mph7.4 kmh 29.92 in1013.2 mb - 0.00 in0.0 mm 0.00 in0.0 mm
11:50 AM -2.7°F-19.3°C -9.5°F-23.1°C 72% 2.3 mph NW3.7 kmh NW 4.6 mph7.4 kmh 29.93 in1013.5 mb - 0.00 in0.0 mm 0.00 in0.0 mm
11:40 AM -3.2°F-19.6°C -10.3°F-23.5°C 71% 5.8 mph N9.3 kmh N 8.1 mph13.0 kmh 29.93 in1013.5 mb - 0.00 in0.0 mm 0.00 in0.0 mm
11:30 AM -3.5°F-19.7°C -10.9°F-23.8°C 70% 4.6 mph NE7.4 kmh NE 10.4 mph16.7 kmh 29.92 in1013.2 mb - 0.00 in0.0 mm 0.00 in0.0 mm
11:20 AM -3.7°F-19.8°C -10.7°F-23.7°C 71% 4.6 mph N7.4 kmh N 8.1 mph13.0 kmh 29.92 in1013.2 mb - 0.00 in0.0 mm 0.00 in0.0 mm
11:10 AM -3.9°F-19.9°C -10.7°F-23.7°C 72% 2.3 mph N3.7 kmh N 3.5 mph5.6 kmh 29.93 in1013.5 mb - 0.00 in0.0 mm 0.00 in0.0 mm
11:00 AM -3.7°F-19.8°C -10.8°F-23.8°C 71% 6.9 mph NNW11.1 kmh NNW 12.7 mph20.4 kmh 29.93 in1013.5 mb - 0.00 in0.0 mm 0.00 in0.0 mm
10:50 AM -3.5°F-19.7°C -10.6°F-23.7°C 71% 2.3 mph NW3.7 kmh NW 3.5 mph5.6 kmh 29.93 in1013.5 mb - 0.00 in0.0 mm 0.00 in0.0 mm
10:40 AM -3.3°F-19.6°C -10.4°F-23.6°C 71% 2.3 mph N3.7 kmh N 3.5 mph5.6 kmh 29.93 in1013.5 mb - 0.00 in0.0 mm 0.00 in0.0 mm
10:30 AM -3.5°F-19.7°C -10.6°F-23.7°C 71% 2.3 mph N3.7 kmh N 4.6 mph7.4 kmh 29.92 in1013.2 mb - 0.00 in0.0 mm 0.00 in0.0 mm
10:20 AM -4.1°F-20.1°C -11.1°F-23.9°C 71% 2.3 mph N3.7 kmh N 3.5 mph5.6 kmh 29.91 in1012.9 mb - 0.00 in0.0 mm 0.00 in0.0 mm
10:10 AM -4.7°F-20.4°C -11.7°F-24.3°C 71% 2.3 mph NW3.7 kmh NW 3.5 mph5.6 kmh 29.91 in1012.9 mb - 0.00 in0.0 mm 0.00 in0.0 mm
10:00 AM -5.3°F-20.7°C -12.3°F-24.6°C 71% 2.3 mph NW3.7 kmh NW 3.5 mph5.6 kmh 29.91 in1012.9 mb - 0.00 in0.0 mm 0.00 in0.0 mm
09:50 AM -5.4°F-20.8°C -12.1°F-24.5°C 72% 4.6 mph ENE7.4 kmh ENE 9.2 mph14.8 kmh 29.91 in1012.9 mb - 0.00 in0.0 mm 0.00 in0.0 mm
09:40 AM -5.6°F-20.9°C -12.3°F-24.6°C 72% 2.3 mph N3.7 kmh N 3.5 mph5.6 kmh 29.91 in1012.9 mb - 0.00 in0.0 mm 0.00 in0.0 mm
09:30 AM -5.8°F-21.0°C -12.3°F-24.6°C 73% 3.5 mph N5.6 kmh N 9.2 mph14.8 kmh 29.92 in1013.2 mb - 0.00 in0.0 mm 0.00 in0.0 mm
09:20 AM -6.2°F-21.2°C -12.9°F-24.9°C 72% 2.3 mph NNE3.7 kmh NNE 3.5 mph5.6 kmh 29.92 in1013.2 mb - 0.00 in0.0 mm 0.00 in0.0 mm
09:10 AM -6.3°F-21.3°C -13.3°F-25.2°C 71% 3.5 mph 5.6 kmh 3.5 mph5.6 kmh 29.91 in1012.9 mb - 0.00 in0.0 mm 0.00 in0.0 mm
09:00 AM -6.3°F-21.3°C -13.3°F-25.2°C 71% 4.6 mph NW7.4 kmh NW 8.1 mph13.0 kmh 29.90 in1012.5 mb - 0.00 in0.0 mm 0.00 in0.0 mm
08:50 AM -6.1°F-21.2°C -13.1°F-25.1°C 71% 3.5 mph NNE5.6 kmh NNE 5.8 mph9.3 kmh 29.89 in1012.2 mb - 0.00 in0.0 mm 0.00 in0.0 mm
08:40 AM -5.9°F-21.1°C -12.6°F-24.8°C 72% 3.5 mph NW5.6 kmh NW 4.6 mph7.4 kmh 29.88 in1011.9 mb - 0.00 in0.0 mm 0.00 in0.0 mm
08:30 AM -5.9°F-21.1°C -12.3°F-24.6°C 73% 3.5 mph N5.6 kmh N 3.5 mph5.6 kmh 29.88 in1011.9 mb - 0.00 in0.0 mm 0.00 in0.0 mm
08:20 AM -6.0°F-21.1°C -12.7°F-24.8°C 72% 5.8 mph NE9.3 kmh NE 13.8 mph22.2 kmh 29.86 in1011.2 mb - 0.00 in0.0 mm 0.00 in0.0 mm
08:10 AM -6.1°F-21.2°C -12.5°F-24.7°C 73% 2.3 mph N3.7 kmh N 8.1 mph13.0 kmh 29.86 in1011.2 mb - 0.00 in0.0 mm 0.00 in0.0 mm
08:00 AM -6.2°F-21.2°C -12.3°F-24.6°C 74% 4.6 mph NNW7.4 kmh NNW 5.8 mph9.3 kmh 29.85 in1010.8 mb - 0.00 in0.0 mm 0.00 in0.0 mm
07:50 AM -6.2°F-21.2°C -12.3°F-24.6°C 74% 3.5 mph N5.6 kmh N 6.9 mph11.1 kmh 29.84 in1010.5 mb - 0.00 in0.0 mm 0.00 in0.0 mm
07:40 AM -6.3°F-21.3°C -12.4°F-24.7°C 74% 2.3 mph N3.7 kmh N 3.5 mph5.6 kmh 29.84 in1010.5 mb - 0.00 in0.0 mm 0.00 in0.0 mm
07:30 AM -6.2°F-21.2°C -12.3°F-24.6°C 74% 4.6 mph NNE7.4 kmh NNE 6.9 mph11.1 kmh 29.83 in1010.2 mb - 0.00 in0.0 mm 0.00 in0.0 mm
07:20 AM -6.0°F-21.1°C -12.4°F-24.7°C 73% 3.5 mph N5.6 kmh N 5.8 mph9.3 kmh 29.83 in1010.2 mb - 0.00 in0.0 mm 0.00 in0.0 mm
07:10 AM -5.9°F-21.1°C -12.6°F-24.8°C 72% 4.6 mph NNW7.4 kmh NNW 5.8 mph9.3 kmh 29.82 in1009.8 mb - 0.00 in0.0 mm 0.00 in0.0 mm
07:00 AM -5.7°F-20.9°C -12.4°F-24.7°C 72% 3.5 mph NNE5.6 kmh NNE 5.8 mph9.3 kmh 29.83 in1010.2 mb - 0.00 in0.0 mm 0.00 in0.0 mm
06:50 AM -5.5°F-20.8°C -12.2°F-24.6°C 72% 3.5 mph N5.6 kmh N 4.6 mph7.4 kmh 29.82 in1009.8 mb - 0.00 in0.0 mm 0.00 in0.0 mm
06:40 AM -5.3°F-20.7°C -12.0°F-24.4°C 72% 2.3 mph N3.7 kmh N 3.5 mph5.6 kmh 29.82 in1009.8 mb - 0.00 in0.0 mm 0.00 in0.0 mm
06:30 AM -5.0°F-20.6°C -11.7°F-24.3°C 72% 3.5 mph NNW5.6 kmh NNW 10.4 mph16.7 kmh 29.82 in1009.8 mb - 0.00 in0.0 mm 0.00 in0.0 mm
06:20 AM -4.9°F-20.5°C -11.6°F-24.2°C 72% 2.3 mph N3.7 kmh N 4.6 mph7.4 kmh 29.82 in1009.8 mb - 0.00 in0.0 mm 0.00 in0.0 mm
06:10 AM -4.8°F-20.4°C -11.3°F-24.1°C 73% 3.5 mph NNE5.6 kmh NNE 4.6 mph7.4 kmh 29.82 in1009.8 mb - 0.00 in0.0 mm 0.00 in0.0 mm
06:00 AM -4.6°F-20.3°C -11.1°F-23.9°C 73% 4.6 mph N7.4 kmh N 9.2 mph14.8 kmh 29.81 in1009.5 mb - 0.00 in0.0 mm 0.00 in0.0 mm
05:50 AM -4.6°F-20.3°C -11.1°F-23.9°C 73% 3.5 mph N5.6 kmh N 9.2 mph14.8 kmh 29.80 in1009.1 mb - 0.00 in0.0 mm 0.00 in0.0 mm
05:40 AM -4.5°F-20.3°C -11.0°F-23.9°C 73% 4.6 mph NW7.4 kmh NW 5.8 mph9.3 kmh 29.79 in1008.8 mb - 0.00 in0.0 mm 0.00 in0.0 mm
05:30 AM -4.4°F-20.2°C -10.9°F-23.8°C 73% 4.6 mph NNW7.4 kmh NNW 6.9 mph11.1 kmh 29.79 in1008.8 mb - 0.00 in0.0 mm 0.00 in0.0 mm
05:20 AM -4.4°F-20.2°C -10.9°F-23.8°C 73% 3.5 mph NNW5.6 kmh NNW 4.6 mph7.4 kmh 29.78 in1008.5 mb - 0.00 in0.0 mm 0.00 in0.0 mm
05:10 AM -4.4°F-20.2°C -10.3°F-23.5°C 75% 2.3 mph NW3.7 kmh NW 4.6 mph7.4 kmh 29.77 in1008.1 mb - 0.00 in0.0 mm 0.00 in0.0 mm
05:00 AM -4.3°F-20.2°C -10.2°F-23.4°C 75% 3.5 mph NNW5.6 kmh NNW 4.6 mph7.4 kmh 29.77 in1008.1 mb - 0.00 in0.0 mm 0.00 in0.0 mm
04:50 AM -4.2°F-20.1°C -10.2°F-23.4°C 75% 3.5 mph N5.6 kmh N 9.2 mph14.8 kmh 29.77 in1008.1 mb - 0.00 in0.0 mm 0.00 in0.0 mm
04:40 AM -4.2°F-20.1°C -10.1°F-23.4°C 75% 4.6 mph N7.4 kmh N 5.8 mph9.3 kmh 29.77 in1008.1 mb - 0.00 in0.0 mm 0.00 in0.0 mm
04:30 AM -4.1°F-20.1°C -10.0°F-23.3°C 75% 2.3 mph NNE3.7 kmh NNE 3.5 mph5.6 kmh 29.77 in1008.1 mb - 0.00 in0.0 mm 0.00 in0.0 mm
04:20 AM -4.1°F-20.1°C -10.0°F-23.3°C 75% 5.8 mph N9.3 kmh N 10.4 mph16.7 kmh 29.77 in1008.1 mb - 0.00 in0.0 mm 0.00 in0.0 mm
04:10 AM -3.9°F-19.9°C -9.8°F-23.2°C 75% 2.3 mph N3.7 kmh N 3.5 mph5.6 kmh 29.77 in1008.1 mb - 0.00 in0.0 mm 0.00 in0.0 mm
04:00 AM -3.7°F-19.8°C -9.6°F-23.1°C 75% 2.3 mph NNW3.7 kmh NNW 3.5 mph5.6 kmh 29.76 in1007.8 mb - 0.00 in0.0 mm 0.00 in0.0 mm
03:50 AM -3.5°F-19.7°C -9.4°F-23.0°C 75% 3.5 mph NNW5.6 kmh NNW 4.6 mph7.4 kmh 29.76 in1007.8 mb - 0.00 in0.0 mm 0.00 in0.0 mm
03:40 AM -3.2°F-19.6°C -9.2°F-22.9°C 75% 5.8 mph N9.3 kmh N 9.2 mph14.8 kmh 29.76 in1007.8 mb - 0.00 in0.0 mm 0.00 in0.0 mm
03:30 AM -3.1°F-19.5°C -8.8°F-22.7°C 76% 3.5 mph NNW5.6 kmh NNW 4.6 mph7.4 kmh 29.75 in1007.5 mb - 0.00 in0.0 mm 0.00 in0.0 mm
03:20 AM -2.8°F-19.3°C -8.8°F-22.7°C 75% 3.5 mph N5.6 kmh N 6.9 mph11.1 kmh 29.75 in1007.5 mb - 0.00 in0.0 mm 0.00 in0.0 mm
03:10 AM -2.5°F-19.2°C -8.2°F-22.3°C 76% 3.5 mph NNW5.6 kmh NNW 4.6 mph7.4 kmh 29.74 in1007.1 mb - 0.00 in0.0 mm 0.00 in0.0 mm
03:00 AM -2.3°F-19.1°C -8.3°F-22.4°C 75% 2.3 mph NNW3.7 kmh NNW 4.6 mph7.4 kmh 29.74 in1007.1 mb - 0.00 in0.0 mm 0.00 in0.0 mm
02:50 AM -2.1°F-18.9°C -8.1°F-22.3°C 75% 4.6 mph NW7.4 kmh NW 8.1 mph13.0 kmh 29.75 in1007.5 mb - 0.00 in0.0 mm 0.00 in0.0 mm
02:40 AM -1.9°F-18.8°C -7.9°F-22.2°C 75% 2.3 mph N3.7 kmh N 5.8 mph9.3 kmh 29.75 in1007.5 mb - 0.00 in0.0 mm 0.00 in0.0 mm
02:30 AM -1.7°F-18.7°C -7.7°F-22.1°C 75% 2.3 mph NNE3.7 kmh NNE 3.5 mph5.6 kmh 29.74 in1007.1 mb - 0.00 in0.0 mm 0.00 in0.0 mm
02:20 AM -1.6°F-18.7°C -7.6°F-22.0°C 75% 3.5 mph N5.6 kmh N 4.6 mph7.4 kmh 29.73 in1006.8 mb - 0.00 in0.0 mm 0.00 in0.0 mm
02:10 AM -1.4°F-18.6°C -7.7°F-22.1°C 74% 2.3 mph N3.7 kmh N 3.5 mph5.6 kmh 29.73 in1006.8 mb - 0.00 in0.0 mm 0.00 in0.0 mm
02:00 AM -1.2°F-18.4°C -7.5°F-21.9°C 74% 2.3 mph NNW3.7 kmh NNW 4.6 mph7.4 kmh 29.73 in1006.8 mb - 0.00 in0.0 mm 0.00 in0.0 mm
01:50 AM -1.1°F-18.4°C -7.4°F-21.9°C 74% 4.6 mph NW7.4 kmh NW 4.6 mph7.4 kmh 29.73 in1006.8 mb - 0.00 in0.0 mm 0.00 in0.0 mm
01:40 AM -0.9°F-18.3°C -7.5°F-21.9°C 73% 4.6 mph N7.4 kmh N 8.1 mph13.0 kmh 29.72 in1006.4 mb - 0.00 in0.0 mm 0.00 in0.0 mm
01:30 AM -0.7°F-18.2°C -7.3°F-21.8°C 73% 2.3 mph NNW3.7 kmh NNW 4.6 mph7.4 kmh 29.72 in1006.4 mb - 0.00 in0.0 mm 0.00 in0.0 mm
01:20 AM -0.5°F-18.1°C -7.1°F-21.7°C 73% 2.3 mph N3.7 kmh N 5.8 mph9.3 kmh 29.72 in1006.4 mb - 0.00 in0.0 mm 0.00 in0.0 mm
01:10 AM -0.3°F-17.9°C -6.9°F-21.6°C 73% 3.5 mph N5.6 kmh N 4.6 mph7.4 kmh 29.71 in1006.1 mb - 0.00 in0.0 mm 0.00 in0.0 mm
01:00 AM 0.0°F-17.8°C -6.9°F-21.6°C 72% 3.5 mph NW5.6 kmh NW 3.5 mph5.6 kmh 29.70 in1005.8 mb - 0.00 in0.0 mm 0.00 in0.0 mm
12:50 AM 0.3°F-17.6°C -6.6°F-21.4°C 72% 2.3 mph NW3.7 kmh NW 3.5 mph5.6 kmh 29.70 in1005.8 mb - 0.00 in0.0 mm 0.00 in0.0 mm
12:40 AM 0.6°F-17.4°C -6.0°F-21.1°C 73% 3.5 mph NNW5.6 kmh NNW 3.5 mph5.6 kmh 29.69 in1005.4 mb - 0.00 in0.0 mm 0.00 in0.0 mm
12:30 AM 1.0°F-17.2°C -5.6°F-20.9°C 73% 4.6 mph N7.4 kmh N 5.8 mph9.3 kmh 29.68 in1005.1 mb - 0.00 in0.0 mm 0.00 in0.0 mm
12:20 AM 1.2°F-17.1°C -5.2°F-20.7°C 74% 3.5 mph N5.6 kmh N 4.6 mph7.4 kmh 29.68 in1005.1 mb - 0.00 in0.0 mm 0.00 in0.0 mm
12:10 AM 1.3°F-17.1°C -4.8°F-20.4°C 75% 3.5 mph NNW5.6 kmh NNW 4.6 mph7.4 kmh 29.68 in1005.1 mb - 0.00 in0.0 mm 0.00 in0.0 mm
12:00 AM 1.3°F-17.1°C -4.8°F-20.4°C 75% 3.5 mph N5.6 kmh N 3.5 mph5.6 kmh 29.67 in1004.7 mb - 0.00 in0.0 mm 0.00 in0.0 mm